sensor_id;sensor_type;location;lat;lon;timestamp;P1;durP1;ratioP1;P2;durP2;ratioP2
35326;SDS011;21436;52.348;20.928;2022-08-19T00:01:46;24.25;;;18.20;;
35326;SDS011;21436;52.348;20.928;2022-08-19T00:04:20;25.33;;;17.13;;
35326;SDS011;21436;52.348;20.928;2022-08-19T00:06:49;24.20;;;16.98;;
35326;SDS011;21436;52.348;20.928;2022-08-19T00:09:17;24.92;;;17.40;;
35326;SDS011;21436;52.348;20.928;2022-08-19T00:11:46;28.23;;;17.10;;
35326;SDS011;21436;52.348;20.928;2022-08-19T00:14:15;23.60;;;17.05;;
35326;SDS011;21436;52.348;20.928;2022-08-19T00:16:44;23.88;;;17.27;;
35326;SDS011;21436;52.348;20.928;2022-08-19T00:19:14;30.60;;;18.23;;
35326;SDS011;21436;52.348;20.928;2022-08-19T00:21:42;23.65;;;17.70;;
35326;SDS011;21436;52.348;20.928;2022-08-19T00:24:10;24.15;;;17.45;;
35326;SDS011;21436;52.348;20.928;2022-08-19T00:26:39;28.35;;;18.20;;
35326;SDS011;21436;52.348;20.928;2022-08-19T00:29:09;29.00;;;18.70;;
35326;SDS011;21436;52.348;20.928;2022-08-19T00:31:37;21.30;;;17.10;;
35326;SDS011;21436;52.348;20.928;2022-08-19T00:34:05;26.02;;;18.38;;
35326;SDS011;21436;52.348;20.928;2022-08-19T00:36:32;23.90;;;17.92;;
35326;SDS011;21436;52.348;20.928;2022-08-19T00:38:59;23.33;;;17.42;;
35326;SDS011;21436;52.348;20.928;2022-08-19T00:41:27;24.92;;;18.38;;
35326;SDS011;21436;52.348;20.928;2022-08-19T00:44:03;26.17;;;19.15;;
35326;SDS011;21436;52.348;20.928;2022-08-19T00:46:31;26.25;;;18.70;;
35326;SDS011;21436;52.348;20.928;2022-08-19T00:49:00;25.10;;;18.08;;
35326;SDS011;21436;52.348;20.928;2022-08-19T00:51:29;25.52;;;18.67;;
35326;SDS011;21436;52.348;20.928;2022-08-19T00:53:59;22.70;;;18.33;;
35326;SDS011;21436;52.348;20.928;2022-08-19T00:56:27;21.20;;;17.88;;
35326;SDS011;21436;52.348;20.928;2022-08-19T00:58:56;28.92;;;18.58;;
35326;SDS011;21436;52.348;20.928;2022-08-19T01:01:25;27.38;;;19.25;;
35326;SDS011;21436;52.348;20.928;2022-08-19T01:03:53;26.73;;;18.77;;
35326;SDS011;21436;52.348;20.928;2022-08-19T01:06:24;27.73;;;18.98;;
35326;SDS011;21436;52.348;20.928;2022-08-19T01:08:53;27.73;;;18.63;;
35326;SDS011;21436;52.348;20.928;2022-08-19T01:11:21;26.05;;;19.60;;
35326;SDS011;21436;52.348;20.928;2022-08-19T01:13:49;27.55;;;18.50;;
35326;SDS011;21436;52.348;20.928;2022-08-19T01:16:19;23.75;;;18.55;;
35326;SDS011;21436;52.348;20.928;2022-08-19T01:18:47;21.92;;;17.83;;
35326;SDS011;21436;52.348;20.928;2022-08-19T01:21:18;25.80;;;18.52;;
35326;SDS011;21436;52.348;20.928;2022-08-19T01:24:02;26.27;;;18.05;;
35326;SDS011;21436;52.348;20.928;2022-08-19T01:26:30;26.92;;;18.42;;
35326;SDS011;21436;52.348;20.928;2022-08-19T01:28:58;26.77;;;19.67;;
35326;SDS011;21436;52.348;20.928;2022-08-19T01:31:31;28.35;;;20.05;;
35326;SDS011;21436;52.348;20.928;2022-08-19T01:33:59;28.17;;;19.77;;
35326;SDS011;21436;52.348;20.928;2022-08-19T01:39:10;27.08;;;20.77;;
35326;SDS011;21436;52.348;20.928;2022-08-19T01:41:39;28.88;;;20.15;;
35326;SDS011;21436;52.348;20.928;2022-08-19T01:44:07;26.17;;;20.00;;
35326;SDS011;21436;52.348;20.928;2022-08-19T01:46:45;27.58;;;19.65;;
35326;SDS011;21436;52.348;20.928;2022-08-19T01:49:15;25.25;;;17.80;;
35326;SDS011;21436;52.348;20.928;2022-08-19T01:51:44;27.48;;;18.58;;
35326;SDS011;21436;52.348;20.928;2022-08-19T01:54:14;25.45;;;17.65;;
35326;SDS011;21436;52.348;20.928;2022-08-19T01:56:55;27.95;;;19.77;;
35326;SDS011;21436;52.348;20.928;2022-08-19T01:59:31;24.20;;;18.35;;
35326;SDS011;21436;52.348;20.928;2022-08-19T02:01:59;29.90;;;19.83;;
35326;SDS011;21436;52.348;20.928;2022-08-19T02:04:27;26.58;;;19.00;;
35326;SDS011;21436;52.348;20.928;2022-08-19T02:06:54;26.75;;;19.85;;
35326;SDS011;21436;52.348;20.928;2022-08-19T02:09:21;25.58;;;19.75;;
35326;SDS011;21436;52.348;20.928;2022-08-19T02:11:49;30.80;;;18.83;;
35326;SDS011;21436;52.348;20.928;2022-08-19T02:14:16;28.17;;;19.00;;
35326;SDS011;21436;52.348;20.928;2022-08-19T02:16:43;24.80;;;18.40;;
35326;SDS011;21436;52.348;20.928;2022-08-19T02:19:11;30.88;;;18.50;;
35326;SDS011;21436;52.348;20.928;2022-08-19T02:21:38;26.23;;;18.45;;
35326;SDS011;21436;52.348;20.928;2022-08-19T02:24:05;25.52;;;19.27;;
35326;SDS011;21436;52.348;20.928;2022-08-19T02:26:33;24.13;;;17.90;;
35326;SDS011;21436;52.348;20.928;2022-08-19T02:29:01;24.15;;;19.40;;
35326;SDS011;21436;52.348;20.928;2022-08-19T02:31:28;26.38;;;18.52;;
35326;SDS011;21436;52.348;20.928;2022-08-19T02:33:55;29.42;;;18.65;;
35326;SDS011;21436;52.348;20.928;2022-08-19T02:36:24;25.42;;;19.13;;
35326;SDS011;21436;52.348;20.928;2022-08-19T02:38:52;30.02;;;19.73;;
35326;SDS011;21436;52.348;20.928;2022-08-19T02:41:23;29.40;;;19.25;;
35326;SDS011;21436;52.348;20.928;2022-08-19T02:43:54;24.15;;;19.20;;
35326;SDS011;21436;52.348;20.928;2022-08-19T02:46:44;26.30;;;18.88;;
35326;SDS011;21436;52.348;20.928;2022-08-19T02:49:12;29.85;;;19.58;;
35326;SDS011;21436;52.348;20.928;2022-08-19T02:51:44;23.90;;;19.17;;
35326;SDS011;21436;52.348;20.928;2022-08-19T02:54:12;26.88;;;20.50;;
35326;SDS011;21436;52.348;20.928;2022-08-19T02:56:41;28.17;;;19.77;;
35326;SDS011;21436;52.348;20.928;2022-08-19T02:59:10;29.25;;;20.58;;
35326;SDS011;21436;52.348;20.928;2022-08-19T03:01:39;25.23;;;20.85;;
35326;SDS011;21436;52.348;20.928;2022-08-19T03:04:10;28.75;;;20.45;;
35326;SDS011;21436;52.348;20.928;2022-08-19T03:06:39;25.80;;;18.95;;
35326;SDS011;21436;52.348;20.928;2022-08-19T03:09:08;27.83;;;18.65;;
35326;SDS011;21436;52.348;20.928;2022-08-19T03:11:36;29.77;;;19.35;;
35326;SDS011;21436;52.348;20.928;2022-08-19T03:14:04;25.65;;;19.73;;
35326;SDS011;21436;52.348;20.928;2022-08-19T03:16:33;26.05;;;19.83;;
35326;SDS011;21436;52.348;20.928;2022-08-19T03:19:02;26.88;;;18.48;;
35326;SDS011;21436;52.348;20.928;2022-08-19T03:21:30;26.88;;;20.35;;
35326;SDS011;21436;52.348;20.928;2022-08-19T03:24:03;24.88;;;19.45;;
35326;SDS011;21436;52.348;20.928;2022-08-19T03:26:33;26.58;;;18.85;;
35326;SDS011;21436;52.348;20.928;2022-08-19T03:29:02;27.58;;;18.83;;
35326;SDS011;21436;52.348;20.928;2022-08-19T03:31:31;24.67;;;18.83;;
35326;SDS011;21436;52.348;20.928;2022-08-19T03:34:13;25.38;;;18.95;;
35326;SDS011;21436;52.348;20.928;2022-08-19T03:36:41;28.00;;;19.55;;
35326;SDS011;21436;52.348;20.928;2022-08-19T03:39:09;27.58;;;19.77;;
35326;SDS011;21436;52.348;20.928;2022-08-19T03:41:39;29.77;;;19.35;;
35326;SDS011;21436;52.348;20.928;2022-08-19T03:44:12;27.30;;;19.45;;
35326;SDS011;21436;52.348;20.928;2022-08-19T03:46:45;27.55;;;19.48;;
35326;SDS011;21436;52.348;20.928;2022-08-19T03:49:14;22.65;;;18.67;;
35326;SDS011;21436;52.348;20.928;2022-08-19T03:51:44;32.05;;;20.63;;
35326;SDS011;21436;52.348;20.928;2022-08-19T03:54:13;27.88;;;19.27;;
35326;SDS011;21436;52.348;20.928;2022-08-19T03:56:43;30.00;;;19.80;;
35326;SDS011;21436;52.348;20.928;2022-08-19T03:59:12;27.58;;;20.50;;
35326;SDS011;21436;52.348;20.928;2022-08-19T04:01:42;25.00;;;18.98;;
35326;SDS011;21436;52.348;20.928;2022-08-19T04:04:10;26.70;;;18.88;;
35326;SDS011;21436;52.348;20.928;2022-08-19T04:06:38;29.45;;;19.35;;
35326;SDS011;21436;52.348;20.928;2022-08-19T04:09:07;27.23;;;18.23;;
35326;SDS011;21436;52.348;20.928;2022-08-19T04:11:40;24.80;;;18.35;;
35326;SDS011;21436;52.348;20.928;2022-08-19T04:14:11;27.80;;;18.75;;
35326;SDS011;21436;52.348;20.928;2022-08-19T04:16:41;28.33;;;17.92;;
35326;SDS011;21436;52.348;20.928;2022-08-19T04:19:11;26.02;;;18.63;;
35326;SDS011;21436;52.348;20.928;2022-08-19T04:21:39;25.70;;;18.10;;
35326;SDS011;21436;52.348;20.928;2022-08-19T04:24:07;32.40;;;18.88;;
35326;SDS011;21436;52.348;20.928;2022-08-19T04:26:36;24.73;;;17.65;;
35326;SDS011;21436;52.348;20.928;2022-08-19T04:29:06;23.50;;;17.80;;
35326;SDS011;21436;52.348;20.928;2022-08-19T04:31:39;30.27;;;18.35;;
35326;SDS011;21436;52.348;20.928;2022-08-19T04:34:08;23.15;;;18.40;;
35326;SDS011;21436;52.348;20.928;2022-08-19T04:36:38;28.40;;;18.05;;
35326;SDS011;21436;52.348;20.928;2022-08-19T04:39:09;25.42;;;18.00;;
35326;SDS011;21436;52.348;20.928;2022-08-19T04:41:44;27.02;;;17.13;;
35326;SDS011;21436;52.348;20.928;2022-08-19T04:44:31;31.45;;;18.45;;
35326;SDS011;21436;52.348;20.928;2022-08-19T04:47:01;23.20;;;18.02;;
35326;SDS011;21436;52.348;20.928;2022-08-19T04:49:37;22.08;;;16.45;;
35326;SDS011;21436;52.348;20.928;2022-08-19T04:52:04;21.52;;;16.50;;
35326;SDS011;21436;52.348;20.928;2022-08-19T04:54:32;28.30;;;17.95;;
35326;SDS011;21436;52.348;20.928;2022-08-19T04:57:05;23.48;;;17.83;;
35326;SDS011;21436;52.348;20.928;2022-08-19T04:59:36;25.10;;;17.00;;
35326;SDS011;21436;52.348;20.928;2022-08-19T05:02:05;25.75;;;15.73;;
35326;SDS011;21436;52.348;20.928;2022-08-19T05:04:34;22.88;;;15.93;;
35326;SDS011;21436;52.348;20.928;2022-08-19T05:07:05;24.65;;;16.48;;
35326;SDS011;21436;52.348;20.928;2022-08-19T05:09:34;27.02;;;15.15;;
35326;SDS011;21436;52.348;20.928;2022-08-19T05:12:22;24.02;;;15.57;;
35326;SDS011;21436;52.348;20.928;2022-08-19T05:14:55;24.15;;;15.85;;
35326;SDS011;21436;52.348;20.928;2022-08-19T05:17:25;27.08;;;16.27;;
35326;SDS011;21436;52.348;20.928;2022-08-19T05:19:56;25.77;;;15.55;;
35326;SDS011;21436;52.348;20.928;2022-08-19T05:22:44;24.40;;;14.73;;
35326;SDS011;21436;52.348;20.928;2022-08-19T05:25:15;20.30;;;14.95;;
35326;SDS011;21436;52.348;20.928;2022-08-19T05:27:46;29.00;;;15.85;;
35326;SDS011;21436;52.348;20.928;2022-08-19T05:30:14;24.08;;;15.52;;
35326;SDS011;21436;52.348;20.928;2022-08-19T05:32:42;17.83;;;14.40;;
35326;SDS011;21436;52.348;20.928;2022-08-19T05:35:10;24.48;;;14.65;;
35326;SDS011;21436;52.348;20.928;2022-08-19T05:37:39;29.30;;;15.65;;
35326;SDS011;21436;52.348;20.928;2022-08-19T05:40:07;22.30;;;14.40;;
35326;SDS011;21436;52.348;20.928;2022-08-19T05:42:36;28.45;;;15.27;;
35326;SDS011;21436;52.348;20.928;2022-08-19T05:45:04;22.42;;;14.73;;
35326;SDS011;21436;52.348;20.928;2022-08-19T05:47:32;25.70;;;13.55;;
35326;SDS011;21436;52.348;20.928;2022-08-19T05:50:00;20.25;;;13.13;;
35326;SDS011;21436;52.348;20.928;2022-08-19T05:52:30;21.50;;;12.75;;
35326;SDS011;21436;52.348;20.928;2022-08-19T05:54:59;16.90;;;12.80;;
35326;SDS011;21436;52.348;20.928;2022-08-19T05:57:27;22.92;;;13.00;;
35326;SDS011;21436;52.348;20.928;2022-08-19T05:59:56;34.10;;;12.07;;
35326;SDS011;21436;52.348;20.928;2022-08-19T06:02:25;28.08;;;12.80;;
35326;SDS011;21436;52.348;20.928;2022-08-19T06:04:53;28.65;;;11.95;;
35326;SDS011;21436;52.348;20.928;2022-08-19T06:07:21;20.17;;;11.35;;
35326;SDS011;21436;52.348;20.928;2022-08-19T06:09:48;24.80;;;11.60;;
35326;SDS011;21436;52.348;20.928;2022-08-19T06:12:31;19.77;;;10.95;;
35326;SDS011;21436;52.348;20.928;2022-08-19T06:15:02;21.58;;;12.20;;
35326;SDS011;21436;52.348;20.928;2022-08-19T06:17:34;21.42;;;11.15;;
35326;SDS011;21436;52.348;20.928;2022-08-19T06:20:06;22.92;;;10.90;;
35326;SDS011;21436;52.348;20.928;2022-08-19T06:22:39;21.23;;;10.88;;
35326;SDS011;21436;52.348;20.928;2022-08-19T06:25:08;19.70;;;10.18;;
35326;SDS011;21436;52.348;20.928;2022-08-19T06:27:39;19.55;;;10.38;;
35326;SDS011;21436;52.348;20.928;2022-08-19T06:30:26;19.02;;;12.23;;
35326;SDS011;21436;52.348;20.928;2022-08-19T06:32:54;23.00;;;12.68;;
35326;SDS011;21436;52.348;20.928;2022-08-19T06:35:21;24.83;;;11.45;;
35326;SDS011;21436;52.348;20.928;2022-08-19T06:37:49;18.13;;;10.55;;
35326;SDS011;21436;52.348;20.928;2022-08-19T06:40:16;17.20;;;10.50;;
35326;SDS011;21436;52.348;20.928;2022-08-19T06:42:44;17.13;;;9.93;;
35326;SDS011;21436;52.348;20.928;2022-08-19T06:45:21;13.77;;;9.50;;
35326;SDS011;21436;52.348;20.928;2022-08-19T06:48:00;18.75;;;9.18;;
35326;SDS011;21436;52.348;20.928;2022-08-19T06:50:29;16.30;;;9.30;;
35326;SDS011;21436;52.348;20.928;2022-08-19T06:52:56;18.20;;;10.57;;
35326;SDS011;21436;52.348;20.928;2022-08-19T06:55:23;18.13;;;9.60;;
35326;SDS011;21436;52.348;20.928;2022-08-19T06:57:51;16.05;;;9.60;;
35326;SDS011;21436;52.348;20.928;2022-08-19T07:00:20;22.58;;;9.43;;
35326;SDS011;21436;52.348;20.928;2022-08-19T07:02:47;18.80;;;9.25;;
35326;SDS011;21436;52.348;20.928;2022-08-19T07:05:24;21.20;;;9.80;;
35326;SDS011;21436;52.348;20.928;2022-08-19T07:07:52;19.70;;;8.77;;
35326;SDS011;21436;52.348;20.928;2022-08-19T07:10:23;19.08;;;9.50;;
35326;SDS011;21436;52.348;20.928;2022-08-19T07:12:52;24.35;;;10.15;;
35326;SDS011;21436;52.348;20.928;2022-08-19T07:15:20;21.55;;;9.80;;
35326;SDS011;21436;52.348;20.928;2022-08-19T07:17:48;18.00;;;11.02;;
35326;SDS011;21436;52.348;20.928;2022-08-19T07:20:19;14.80;;;9.55;;
35326;SDS011;21436;52.348;20.928;2022-08-19T07:22:46;16.02;;;9.68;;
35326;SDS011;21436;52.348;20.928;2022-08-19T07:25:16;14.45;;;9.93;;
35326;SDS011;21436;52.348;20.928;2022-08-19T07:27:44;22.83;;;9.65;;
35326;SDS011;21436;52.348;20.928;2022-08-19T07:30:20;13.48;;;10.10;;
35326;SDS011;21436;52.348;20.928;2022-08-19T07:32:52;24.20;;;10.38;;
35326;SDS011;21436;52.348;20.928;2022-08-19T07:35:19;12.15;;;9.98;;
35326;SDS011;21436;52.348;20.928;2022-08-19T07:37:47;14.85;;;9.95;;
35326;SDS011;21436;52.348;20.928;2022-08-19T07:40:15;14.50;;;9.18;;
35326;SDS011;21436;52.348;20.928;2022-08-19T07:42:42;15.30;;;9.23;;
35326;SDS011;21436;52.348;20.928;2022-08-19T07:45:09;20.27;;;9.75;;
35326;SDS011;21436;52.348;20.928;2022-08-19T07:47:37;17.40;;;9.85;;
35326;SDS011;21436;52.348;20.928;2022-08-19T07:50:16;18.88;;;10.40;;
35326;SDS011;21436;52.348;20.928;2022-08-19T07:52:45;13.27;;;9.77;;
35326;SDS011;21436;52.348;20.928;2022-08-19T07:55:15;13.73;;;9.40;;
35326;SDS011;21436;52.348;20.928;2022-08-19T07:58:05;16.05;;;9.23;;
35326;SDS011;21436;52.348;20.928;2022-08-19T08:00:32;10.27;;;9.18;;
35326;SDS011;21436;52.348;20.928;2022-08-19T08:02:59;17.40;;;9.95;;
35326;SDS011;21436;52.348;20.928;2022-08-19T08:05:27;22.88;;;9.93;;
35326;SDS011;21436;52.348;20.928;2022-08-19T08:08:13;17.40;;;8.88;;
35326;SDS011;21436;52.348;20.928;2022-08-19T08:10:59;20.40;;;10.32;;
35326;SDS011;21436;52.348;20.928;2022-08-19T08:13:27;20.02;;;9.80;;
35326;SDS011;21436;52.348;20.928;2022-08-19T08:15:55;21.38;;;10.80;;
35326;SDS011;21436;52.348;20.928;2022-08-19T08:18:23;16.67;;;9.95;;
35326;SDS011;21436;52.348;20.928;2022-08-19T08:20:54;21.15;;;10.85;;
35326;SDS011;21436;52.348;20.928;2022-08-19T08:23:22;13.93;;;9.80;;
35326;SDS011;21436;52.348;20.928;2022-08-19T08:25:53;15.57;;;9.25;;
35326;SDS011;21436;52.348;20.928;2022-08-19T08:28:23;20.63;;;10.60;;
35326;SDS011;21436;52.348;20.928;2022-08-19T08:30:55;13.00;;;9.80;;
35326;SDS011;21436;52.348;20.928;2022-08-19T08:33:24;13.40;;;9.55;;
35326;SDS011;21436;52.348;20.928;2022-08-19T08:36:02;12.15;;;10.20;;
35326;SDS011;21436;52.348;20.928;2022-08-19T08:38:32;21.80;;;10.38;;
35326;SDS011;21436;52.348;20.928;2022-08-19T08:41:12;21.05;;;10.57;;
35326;SDS011;21436;52.348;20.928;2022-08-19T08:43:47;13.10;;;9.30;;
35326;SDS011;21436;52.348;20.928;2022-08-19T08:46:22;16.75;;;10.70;;
35326;SDS011;21436;52.348;20.928;2022-08-19T08:49:02;19.10;;;10.18;;
35326;SDS011;21436;52.348;20.928;2022-08-19T08:52:20;14.43;;;10.30;;
35326;SDS011;21436;52.348;20.928;2022-08-19T08:54:34;17.98;;;10.05;;
35326;SDS011;21436;52.348;20.928;2022-08-19T08:58:07;16.90;;;10.20;;
35326;SDS011;21436;52.348;20.928;2022-08-19T09:00:15;15.73;;;9.70;;
35326;SDS011;21436;52.348;20.928;2022-08-19T09:02:48;24.15;;;10.98;;
35326;SDS011;21436;52.348;20.928;2022-08-19T09:05:17;11.75;;;9.02;;
35326;SDS011;21436;52.348;20.928;2022-08-19T09:16:14;17.40;;;9.88;;
35326;SDS011;21436;52.348;20.928;2022-08-19T09:18:55;16.27;;;9.95;;
35326;SDS011;21436;52.348;20.928;2022-08-19T09:21:34;15.57;;;9.80;;
35326;SDS011;21436;52.348;20.928;2022-08-19T09:24:02;22.77;;;10.80;;
35326;SDS011;21436;52.348;20.928;2022-08-19T09:26:32;17.45;;;9.50;;
35326;SDS011;21436;52.348;20.928;2022-08-19T09:29:19;13.20;;;9.60;;
35326;SDS011;21436;52.348;20.928;2022-08-19T09:31:48;16.13;;;9.43;;
35326;SDS011;21436;52.348;20.928;2022-08-19T09:34:16;15.45;;;9.15;;
35326;SDS011;21436;52.348;20.928;2022-08-19T09:36:49;15.27;;;9.20;;
35326;SDS011;21436;52.348;20.928;2022-08-19T09:39:21;14.88;;;9.60;;
35326;SDS011;21436;52.348;20.928;2022-08-19T09:41:50;20.42;;;10.02;;
35326;SDS011;21436;52.348;20.928;2022-08-19T09:44:18;17.80;;;10.05;;
35326;SDS011;21436;52.348;20.928;2022-08-19T09:46:47;18.52;;;9.77;;
35326;SDS011;21436;52.348;20.928;2022-08-19T09:49:16;22.67;;;10.35;;
35326;SDS011;21436;52.348;20.928;2022-08-19T09:51:45;19.35;;;9.98;;
35326;SDS011;21436;52.348;20.928;2022-08-19T09:54:17;30.30;;;11.82;;
35326;SDS011;21436;52.348;20.928;2022-08-19T09:56:52;17.35;;;9.88;;
35326;SDS011;21436;52.348;20.928;2022-08-19T09:59:21;16.30;;;10.70;;
35326;SDS011;21436;52.348;20.928;2022-08-19T10:01:48;17.65;;;10.27;;
35326;SDS011;21436;52.348;20.928;2022-08-19T10:04:15;12.77;;;9.40;;
35326;SDS011;21436;52.348;20.928;2022-08-19T10:06:49;15.43;;;9.15;;
35326;SDS011;21436;52.348;20.928;2022-08-19T10:09:19;16.10;;;9.98;;
35326;SDS011;21436;52.348;20.928;2022-08-19T10:12:02;20.83;;;10.17;;
35326;SDS011;21436;52.348;20.928;2022-08-19T10:14:32;17.15;;;9.30;;
35326;SDS011;21436;52.348;20.928;2022-08-19T10:17:00;16.05;;;9.00;;
35326;SDS011;21436;52.348;20.928;2022-08-19T10:19:47;14.35;;;9.60;;
35326;SDS011;21436;52.348;20.928;2022-08-19T10:22:21;17.52;;;9.20;;
35326;SDS011;21436;52.348;20.928;2022-08-19T10:24:52;17.92;;;10.18;;
35326;SDS011;21436;52.348;20.928;2022-08-19T10:27:19;13.27;;;9.48;;
35326;SDS011;21436;52.348;20.928;2022-08-19T10:29:47;17.77;;;9.48;;
35326;SDS011;21436;52.348;20.928;2022-08-19T10:32:15;19.20;;;9.50;;
35326;SDS011;21436;52.348;20.928;2022-08-19T10:34:42;16.50;;;8.82;;
35326;SDS011;21436;52.348;20.928;2022-08-19T10:37:15;17.63;;;8.68;;
35326;SDS011;21436;52.348;20.928;2022-08-19T10:39:49;12.73;;;8.80;;
35326;SDS011;21436;52.348;20.928;2022-08-19T10:42:18;13.82;;;7.93;;
35326;SDS011;21436;52.348;20.928;2022-08-19T10:44:45;14.70;;;8.05;;
35326;SDS011;21436;52.348;20.928;2022-08-19T10:47:18;17.17;;;9.90;;
35326;SDS011;21436;52.348;20.928;2022-08-19T10:49:52;15.73;;;8.52;;
35326;SDS011;21436;52.348;20.928;2022-08-19T10:52:40;17.27;;;8.48;;
35326;SDS011;21436;52.348;20.928;2022-08-19T10:55:20;17.10;;;8.63;;
35326;SDS011;21436;52.348;20.928;2022-08-19T10:58:12;13.63;;;8.35;;
35326;SDS011;21436;52.348;20.928;2022-08-19T11:00:40;18.15;;;8.18;;
35326;SDS011;21436;52.348;20.928;2022-08-19T11:03:10;14.60;;;8.52;;
35326;SDS011;21436;52.348;20.928;2022-08-19T11:05:38;17.60;;;7.50;;
35326;SDS011;21436;52.348;20.928;2022-08-19T11:08:06;17.15;;;8.90;;
35326;SDS011;21436;52.348;20.928;2022-08-19T11:13:16;15.82;;;7.95;;
35326;SDS011;21436;52.348;20.928;2022-08-19T11:15:45;13.77;;;7.95;;
35326;SDS011;21436;52.348;20.928;2022-08-19T11:18:13;15.73;;;8.35;;
35326;SDS011;21436;52.348;20.928;2022-08-19T11:20:40;13.20;;;7.93;;
35326;SDS011;21436;52.348;20.928;2022-08-19T11:23:08;16.20;;;7.82;;
35326;SDS011;21436;52.348;20.928;2022-08-19T11:25:38;17.58;;;8.52;;
35326;SDS011;21436;52.348;20.928;2022-08-19T11:28:06;13.15;;;7.60;;
35326;SDS011;21436;52.348;20.928;2022-08-19T11:30:36;12.73;;;7.30;;
35326;SDS011;21436;52.348;20.928;2022-08-19T11:33:04;7.82;;;7.05;;
35326;SDS011;21436;52.348;20.928;2022-08-19T11:35:32;14.65;;;7.88;;
35326;SDS011;21436;52.348;20.928;2022-08-19T11:38:00;13.50;;;7.70;;
35326;SDS011;21436;52.348;20.928;2022-08-19T11:40:28;17.83;;;8.30;;
35326;SDS011;21436;52.348;20.928;2022-08-19T11:42:56;12.65;;;7.68;;
35326;SDS011;21436;52.348;20.928;2022-08-19T11:45:25;16.55;;;7.53;;
35326;SDS011;21436;52.348;20.928;2022-08-19T11:47:54;15.50;;;7.75;;
35326;SDS011;21436;52.348;20.928;2022-08-19T11:50:23;12.95;;;7.20;;
35326;SDS011;21436;52.348;20.928;2022-08-19T11:52:53;14.10;;;8.10;;
35326;SDS011;21436;52.348;20.928;2022-08-19T11:55:22;13.55;;;8.10;;
35326;SDS011;21436;52.348;20.928;2022-08-19T11:57:49;12.52;;;7.75;;
35326;SDS011;21436;52.348;20.928;2022-08-19T12:00:17;17.08;;;8.27;;
35326;SDS011;21436;52.348;20.928;2022-08-19T12:02:45;14.45;;;8.10;;
35326;SDS011;21436;52.348;20.928;2022-08-19T12:05:14;11.05;;;7.35;;
35326;SDS011;21436;52.348;20.928;2022-08-19T12:07:41;17.33;;;7.88;;
35326;SDS011;21436;52.348;20.928;2022-08-19T12:10:11;14.75;;;7.53;;
35326;SDS011;21436;52.348;20.928;2022-08-19T12:12:38;13.65;;;7.88;;
35326;SDS011;21436;52.348;20.928;2022-08-19T12:15:13;17.13;;;7.78;;
35326;SDS011;21436;52.348;20.928;2022-08-19T12:17:41;10.30;;;7.22;;
35326;SDS011;21436;52.348;20.928;2022-08-19T12:20:11;20.80;;;7.68;;
35326;SDS011;21436;52.348;20.928;2022-08-19T12:22:40;14.80;;;7.43;;
35326;SDS011;21436;52.348;20.928;2022-08-19T12:25:09;11.10;;;7.05;;
35326;SDS011;21436;52.348;20.928;2022-08-19T12:27:38;18.88;;;7.78;;
35326;SDS011;21436;52.348;20.928;2022-08-19T12:30:09;16.13;;;7.60;;
35326;SDS011;21436;52.348;20.928;2022-08-19T12:32:39;15.57;;;7.13;;
35326;SDS011;21436;52.348;20.928;2022-08-19T12:35:07;15.98;;;7.20;;
35326;SDS011;21436;52.348;20.928;2022-08-19T12:37:38;11.75;;;7.55;;
35326;SDS011;21436;52.348;20.928;2022-08-19T12:40:09;13.32;;;7.20;;
35326;SDS011;21436;52.348;20.928;2022-08-19T12:42:38;14.88;;;7.35;;
35326;SDS011;21436;52.348;20.928;2022-08-19T12:45:10;13.05;;;6.90;;
35326;SDS011;21436;52.348;20.928;2022-08-19T12:47:40;17.90;;;6.90;;
35326;SDS011;21436;52.348;20.928;2022-08-19T12:50:11;14.82;;;7.38;;
35326;SDS011;21436;52.348;20.928;2022-08-19T12:52:39;12.52;;;6.65;;
35326;SDS011;21436;52.348;20.928;2022-08-19T12:55:09;11.45;;;6.72;;
35326;SDS011;21436;52.348;20.928;2022-08-19T12:57:37;10.50;;;6.38;;
35326;SDS011;21436;52.348;20.928;2022-08-19T13:00:07;13.60;;;6.90;;
35326;SDS011;21436;52.348;20.928;2022-08-19T13:02:42;11.57;;;6.60;;
35326;SDS011;21436;52.348;20.928;2022-08-19T13:05:16;13.93;;;7.72;;
35326;SDS011;21436;52.348;20.928;2022-08-19T13:07:48;16.75;;;7.75;;
35326;SDS011;21436;52.348;20.928;2022-08-19T13:10:17;13.80;;;6.55;;
35326;SDS011;21436;52.348;20.928;2022-08-19T13:12:47;18.90;;;7.50;;
35326;SDS011;21436;52.348;20.928;2022-08-19T13:15:16;12.73;;;6.80;;
35326;SDS011;21436;52.348;20.928;2022-08-19T13:17:50;10.23;;;7.15;;
35326;SDS011;21436;52.348;20.928;2022-08-19T13:20:20;19.23;;;7.72;;
35326;SDS011;21436;52.348;20.928;2022-08-19T13:22:48;19.45;;;6.90;;
35326;SDS011;21436;52.348;20.928;2022-08-19T13:25:16;11.98;;;6.25;;
35326;SDS011;21436;52.348;20.928;2022-08-19T13:27:46;16.42;;;6.25;;
35326;SDS011;21436;52.348;20.928;2022-08-19T13:30:15;12.02;;;6.93;;
35326;SDS011;21436;52.348;20.928;2022-08-19T13:33:01;13.30;;;7.10;;
35326;SDS011;21436;52.348;20.928;2022-08-19T13:35:38;19.98;;;6.82;;
35326;SDS011;21436;52.348;20.928;2022-08-19T13:38:07;12.80;;;6.05;;
35326;SDS011;21436;52.348;20.928;2022-08-19T13:40:38;17.13;;;6.38;;
35326;SDS011;21436;52.348;20.928;2022-08-19T13:43:07;14.75;;;6.80;;
35326;SDS011;21436;52.348;20.928;2022-08-19T13:45:52;13.27;;;6.20;;
35326;SDS011;21436;52.348;20.928;2022-08-19T13:48:22;12.60;;;6.20;;
35326;SDS011;21436;52.348;20.928;2022-08-19T13:50:50;18.27;;;6.65;;
35326;SDS011;21436;52.348;20.928;2022-08-19T13:53:18;19.48;;;7.00;;
35326;SDS011;21436;52.348;20.928;2022-08-19T13:55:45;13.20;;;6.70;;
35326;SDS011;21436;52.348;20.928;2022-08-19T13:58:13;17.55;;;6.05;;
35326;SDS011;21436;52.348;20.928;2022-08-19T14:00:43;18.08;;;7.13;;
35326;SDS011;21436;52.348;20.928;2022-08-19T14:03:11;7.05;;;6.30;;
35326;SDS011;21436;52.348;20.928;2022-08-19T14:05:39;9.52;;;5.70;;
35326;SDS011;21436;52.348;20.928;2022-08-19T14:08:07;11.85;;;6.43;;
35326;SDS011;21436;52.348;20.928;2022-08-19T14:10:36;14.73;;;6.25;;
35326;SDS011;21436;52.348;20.928;2022-08-19T14:13:03;18.05;;;6.30;;
35326;SDS011;21436;52.348;20.928;2022-08-19T14:15:32;10.63;;;6.35;;
35326;SDS011;21436;52.348;20.928;2022-08-19T14:17:59;15.65;;;6.88;;
35326;SDS011;21436;52.348;20.928;2022-08-19T14:20:27;11.52;;;6.97;;
35326;SDS011;21436;52.348;20.928;2022-08-19T14:22:56;11.57;;;6.55;;
35326;SDS011;21436;52.348;20.928;2022-08-19T14:25:25;10.25;;;6.68;;
35326;SDS011;21436;52.348;20.928;2022-08-19T14:27:55;15.27;;;6.68;;
35326;SDS011;21436;52.348;20.928;2022-08-19T14:30:24;12.23;;;6.35;;
35326;SDS011;21436;52.348;20.928;2022-08-19T14:32:57;13.98;;;6.72;;
35326;SDS011;21436;52.348;20.928;2022-08-19T14:35:26;20.30;;;6.93;;
35326;SDS011;21436;52.348;20.928;2022-08-19T14:37:55;23.67;;;7.10;;
35326;SDS011;21436;52.348;20.928;2022-08-19T14:40:23;9.73;;;6.00;;
35326;SDS011;21436;52.348;20.928;2022-08-19T14:42:53;14.27;;;6.78;;
35326;SDS011;21436;52.348;20.928;2022-08-19T14:45:28;15.73;;;6.22;;
35326;SDS011;21436;52.348;20.928;2022-08-19T14:47:56;9.40;;;6.53;;
35326;SDS011;21436;52.348;20.928;2022-08-19T14:50:23;13.18;;;6.50;;